Eppley Airfield, NE

2:59 PM CDT on August 24, 2016 (GMT -0500)
Eppley Airfield | | Change Station

Elev 981 ft 41.31 °N, 95.90 °W | Updated 7 minutes ago

Overcast
Overcast
80 °F
Feels Like 82 °F
N
7
Wind Variable Wind from North

Today
High -- | Low -- °F
--% Chance of Precip.
Yesterday
High -- | Low -- °F
Precip. -- in
Pressure 29.99 in
Visibility 10.0 miles
Clouds Few 4000 ft
Scattered Clouds 15000 ft
Overcast 25000 ft
Heat Index 82 °F
Dew Point 63 °F
Humidity 56%
Rainfall 0.00 in
Snow Depth Not available.
6:42 AM 8:08 PM
Waning Gibbous, 54% visible
METAR KOMA 241952Z 35006KT 10SM FEW040 SCT150 OVC250 27/17 A3001 RMK AO2 SLP156 T02670172
Pressure 29.99 in
Visibility 10.0 miles
Clouds Few 4000 ft
Scattered Clouds 15000 ft
Overcast 25000 ft
Heat Index 82 °F
Dew Point 63 °F
Humidity 56%
Rainfall 0.00 in
Snow Depth Not available.
6:42 AM 8:08 PM
Waning Gibbous, 54% visible
METAR KOMA 241952Z 35006KT 10SM FEW040 SCT150 OVC250 27/17 A3001 RMK AO2 SLP156 T02670172

10-Day Weather Forecast

Almanac

Astronomy

Aug. 24, 2016 Rise Set
Actual Time
Civil Twilight
Nautical Twilight
Astronomical Twilight
Moon
Length of Visible Light
Length of Day
Tomorrow will be .
, % of the Moon is Illuminated

Today's Extremes

State Highs State Lows

Community

WunderPhotos

Upload Photos

1,934,690 photos uploaded!

WunderBlog® & News

Nearby

Air Quality

  Air Quality AQ Index Pollutant
Not available.

Snow Depth

Station Depth Elevation

Earthquake Activity

City Distance Mag. Time & Date
Minimum magnitude displayed is 2.5.

Coastal Water Temperatures

Place Temperature

Stations

Nearby Weather Stations

Station Location Temp. Windchill Dew Point Humidity Wind Precip. Elev Updated Type
                   

Watches & Warnings

There are currently no watches in effect.